Alto Parnaiba, Brazil
Current Conditions -  °F | °C
As of 2:00 AM on Tuesday 27 Jan 2015 (Local Time) from SBPJ Reporting Station
Few Clouds Few Clouds  
Wind Chill: 75°   Ceiling: Unl
Heat Index: 75°   Visibility: 6mi
Dew Point: 70°   Wind: 6mph
Humidity: 83%   Direction: 110°ESE
Pressure: 29.91"   Gusts: NA
Location:  9.11°S, 45.93°W
Report Text: SBPJ 270500Z 11005KT 9999 FEW020 FEW050TCU 24/21 Q1013
Loading
Personal Weather Stations






























Interactive Weather Map New forecast layout! Learn more

10-Day Weather Forecast

Advertisements
Track Severe Weather on mobile